Time;durP1;ratioP1;P1;durP2;ratioP2;P2;SDS_P1;SDS_P2;PMS_P1;PMS_P2;Temp;Humidity;BMP_temperature;BMP_pressure;BME280_temperature;BME280_humidity;BME280_pressure;Samples;Min_cycle;Max_cycle;Signal;HPM_P1;HPM_P2
2023/02/27 00:02:59;;;;;;;1.88;0.95;;;14.50;63.40;;;;;;10355864;28;20119;-51
2023/02/27 00:07:59;;;;;;;1.17;0.80;;;14.40;63.40;;;;;;10352573;28;20105;-55
2023/02/27 00:13:00;;;;;;;2.47;1.05;;;14.40;63.40;;;;;;10366379;28;20112;-54
2023/02/27 00:18:01;;;;;;;4.43;1.83;;;14.40;63.40;;;;;;10357549;28;20116;-55
2023/02/27 00:23:02;;;;;;;1.60;1.30;;;14.40;63.50;;;;;;10342354;28;20034;-55
2023/02/27 00:28:03;;;;;;;3.83;1.30;;;14.40;63.50;;;;;;10359271;28;20153;-56
2023/02/27 00:33:04;;;;;;;2.80;1.20;;;14.30;63.40;;;;;;10360959;28;20053;-55
2023/02/27 00:38:05;;;;;;;2.13;1.13;;;14.30;63.30;;;;;;10363104;28;20117;-54
2023/02/27 00:43:06;;;;;;;1.90;1.10;;;14.30;62.90;;;;;;10351069;28;20061;-54
2023/02/27 00:48:06;;;;;;;2.65;1.20;;;14.30;62.90;;;;;;10352414;28;20026;-54
2023/02/27 00:53:07;;;;;;;1.98;1.00;;;14.30;63.20;;;;;;10362718;28;20060;-55
2023/02/27 00:58:07;;;;;;;2.38;1.38;;;14.20;63.20;;;;;;10360755;28;21320;-55
2023/02/27 01:03:08;;;;;;;1.20;0.80;;;14.20;63.30;;;;;;10361393;28;20482;-53
2023/02/27 01:08:09;;;;;;;2.40;1.00;;;14.20;63.40;;;;;;10362488;28;20096;-53
2023/02/27 01:13:09;;;;;;;2.17;1.30;;;14.10;63.30;;;;;;10367934;28;20085;-55
2023/02/27 01:18:10;;;;;;;1.70;0.95;;;14.10;63.30;;;;;;10343135;28;20022;-53
2023/02/27 01:23:11;;;;;;;1.98;1.30;;;14.10;63.00;;;;;;10352327;28;20121;-51
2023/02/27 01:28:12;;;;;;;1.40;0.90;;;14.10;62.80;;;;;;10344535;28;20021;-54
2023/02/27 01:33:13;;;;;;;2.92;1.00;;;14.10;63.30;;;;;;10372756;28;20168;-55
2023/02/27 01:38:14;;;;;;;1.95;0.90;;;14.00;63.30;;;;;;10314504;28;1066739;-54
2023/02/27 01:43:18;;;;;;;2.03;0.90;;;14.00;63.60;;;;;;10359081;28;20037;-55
2023/02/27 01:48:35;;;;;;;2.88;0.90;;;14.00;63.30;;;;;;10357936;28;20080;-53
2023/02/27 01:53:39;;;;;;;3.22;0.90;;;14.00;63.40;;;;;;10348592;28;20036;-53
2023/02/27 01:58:41;;;;;;;1.98;1.15;;;14.00;63.40;;;;;;10369195;28;20030;-55
2023/02/27 02:03:56;;;;;;;2.58;1.13;;;13.90;63.40;;;;;;10369565;28;20512;-53
2023/02/27 02:08:59;;;;;;;1.65;0.90;;;13.90;63.60;;;;;;10356891;28;20026;-54
2023/02/27 02:14:09;;;;;;;2.83;0.90;;;13.90;63.60;;;;;;10360069;28;20382;-54
2023/02/27 02:19:56;;;;;;;2.90;0.85;;;13.90;63.50;;;;;;10379081;28;20429;-53
2023/02/27 02:25:25;;;;;;;2.35;1.10;;;13.90;63.80;;;;;;10367811;28;20030;-55
2023/02/27 02:31:13;;;;;;;2.08;0.82;;;13.80;63.60;;;;;;10369963;28;20037;-55
2023/02/27 02:36:47;;;;;;;1.15;0.75;;;13.80;63.70;;;;;;10356356;28;20259;-51
2023/02/27 02:42:15;;;;;;;1.98;0.93;;;13.80;63.50;;;;;;10369430;28;20029;-54
2023/02/27 02:47:30;;;;;;;1.52;1.05;;;13.80;62.70;;;;;;10361197;28;20057;-55
2023/02/27 02:53:29;;;;;;;1.70;1.00;;;13.80;63.60;;;;;;10368470;28;20117;-55
2023/02/27 02:58:35;;;;;;;1.23;0.85;;;13.80;63.50;;;;;;10367154;28;20044;-55
2023/02/27 03:03:58;;;;;;;1.33;0.80;;;13.70;63.70;;;;;;10365589;28;20054;-52
2023/02/27 03:09:17;;;;;;;1.33;0.73;;;13.70;63.60;;;;;;10367757;28;20381;-55
2023/02/27 03:14:25;;;;;;;1.50;0.80;;;13.70;63.80;;;;;;10357600;28;20469;-55
2023/02/27 03:19:48;;;;;;;3.15;1.05;;;13.70;63.80;;;;;;10358398;28;20022;-52
2023/02/27 03:24:54;;;;;;;1.58;0.77;;;13.60;63.60;;;;;;10365103;28;20119;-53
2023/02/27 03:30:19;;;;;;;2.70;0.90;;;13.60;63.70;;;;;;10353221;28;20080;-53
2023/02/27 03:35:19;;;;;;;2.08;0.80;;;13.60;63.70;;;;;;10349990;28;20065;-55
2023/02/27 03:40:31;;;;;;;2.05;0.60;;;13.60;63.80;;;;;;10361609;28;20407;-53
2023/02/27 03:45:49;;;;;;;1.60;0.90;;;13.60;62.00;;;;;;10366554;28;20053;-53
2023/02/27 03:50:51;;;;;;;1.40;0.68;;;13.80;62.00;;;;;;10352873;28;20050;-55
2023/02/27 03:55:54;;;;;;;1.80;0.98;;;13.90;61.40;;;;;;10350140;28;20022;-53
2023/02/27 04:00:55;;;;;;;1.55;0.80;;;14.20;60.70;;;;;;10361082;28;20030;-54
2023/02/27 04:07:21;;;;;;;1.60;0.60;;;14.40;60.20;;;;;;10354052;28;20084;-54
2023/02/27 04:11:35;;;;;;;1.00;0.60;;;14.60;59.80;;;;;;10373763;28;20073;-54
2023/02/27 04:16:51;;;;;;;1.27;1.15;;;14.70;59.20;;;;;;10347715;28;20022;-55
2023/02/27 04:22:28;;;;;;;1.58;0.68;;;14.80;58.90;;;;;;10363107;28;20452;-54
2023/02/27 04:28:00;;;;;;;1.13;0.73;;;14.90;58.50;;;;;;10361197;28;20054;-54
2023/02/27 04:33:20;;;;;;;1.30;1.08;;;15.10;58.10;;;;;;10354483;28;20027;-54
2023/02/27 04:38:39;;;;;;;0.63;0.52;;;15.30;57.70;;;;;;10353905;28;20041;-54
2023/02/27 04:43:41;;;;;;;0.65;0.40;;;15.40;57.40;;;;;;10356178;28;20026;-55
2023/02/27 04:49:13;;;;;;;1.23;0.63;;;15.50;57.00;;;;;;10357974;28;20041;-54
2023/02/27 04:54:20;;;;;;;1.00;0.55;;;15.60;56.60;;;;;;10344516;28;20100;-54
2023/02/27 04:59:29;;;;;;;1.65;0.50;;;15.70;56.30;;;;;;10335331;28;20150;-54
2023/02/27 05:04:33;;;;;;;;;;;15.80;56.40;;;;;;10362670;28;20117;-53
2023/02/27 05:09:41;;;;;;;0.75;0.40;;;15.80;56.30;;;;;;10341751;28;20383;-54
2023/02/27 05:14:50;;;;;;;1.67;0.55;;;15.80;56.30;;;;;;10348246;28;20374;-55
2023/02/27 05:19:51;;;;;;;1.47;0.80;;;15.80;56.20;;;;;;10339600;28;20018;-55
2023/02/27 05:25:27;;;;;;;1.85;0.70;;;15.80;56.20;;;;;;10341605;28;20038;-55
2023/02/27 05:30:45;;;;;;;1.25;0.55;;;15.90;56.10;;;;;;10335405;28;20029;-54
2023/02/27 05:35:59;;;;;;;1.75;0.73;;;16.00;55.90;;;;;;10346844;28;20049;-53
2023/02/27 05:41:15;;;;;;;1.83;0.70;;;16.00;55.60;;;;;;10350621;28;20021;-55
2023/02/27 05:46:28;;;;;;;0.98;0.50;;;16.10;55.50;;;;;;10374853;28;20582;-54
2023/02/27 05:51:34;;;;;;;18.10;1.38;;;16.20;55.40;;;;;;10361853;28;20034;-52
2023/02/27 05:56:37;;;;;;;3.25;0.70;;;16.30;55.30;;;;;;10349023;28;20034;-54
2023/02/27 06:01:38;;;;;;;4.05;1.02;;;16.40;55.00;;;;;;10347183;28;20022;-52
2023/02/27 06:06:40;;;;;;;2.58;0.90;;;16.40;55.60;;;;;;10347223;28;20030;-54
2023/02/27 06:11:41;;;;;;;1.80;0.70;;;16.60;55.50;;;;;;10340045;28;20027;-53
2023/02/27 06:16:42;;;;;;;5.25;1.00;;;16.60;57.20;;;;;;10357596;28;20030;-52
2023/02/27 06:21:42;;;;;;;2.05;0.75;;;16.70;56.80;;;;;;10374650;28;20644;-54
2023/02/27 06:26:43;;;;;;;4.07;1.05;;;16.60;58.00;;;;;;10366153;28;20041;-53
2023/02/27 06:31:44;;;;;;;8.55;1.10;;;16.80;57.70;;;;;;10370020;28;20026;-50
2023/02/27 06:36:45;;;;;;;5.75;0.80;;;16.70;58.90;;;;;;10371966;28;20196;-52
2023/02/27 06:41:45;;;;;;;4.25;0.82;;;16.70;58.60;;;;;;10385242;28;20022;-53
2023/02/27 06:46:46;;;;;;;7.53;1.25;;;16.70;58.70;;;;;;10361150;28;20087;-54
2023/02/27 06:51:46;;;;;;;6.93;1.25;;;16.70;59.60;;;;;;10352364;28;20100;-52
2023/02/27 06:56:47;;;;;;;9.45;1.77;;;16.70;58.80;;;;;;10368871;28;20018;-54
2023/02/27 07:01:48;;;;;;;6.95;1.40;;;16.80;58.50;;;;;;10367957;28;20386;-53
2023/02/27 07:06:48;;;;;;;8.27;0.98;;;16.80;57.60;;;;;;10377098;28;20033;-52
2023/02/27 07:11:49;;;;;;;7.43;1.08;;;16.80;57.10;;;;;;10366533;28;20108;-52
2023/02/27 07:16:53;;;;;;;11.77;1.50;;;16.70;56.40;;;;;;10343038;28;20022;-53
2023/02/27 07:21:54;;;;;;;9.23;1.70;;;16.80;55.90;;;;;;10366635;28;20553;-54
2023/02/27 07:26:55;;;;;;;10.45;1.67;;;16.80;56.40;;;;;;10354080;28;20022;-54
2023/02/27 07:31:55;;;;;;;9.60;1.40;;;16.90;56.20;;;;;;10365194;28;20026;-54
2023/02/27 07:36:56;;;;;;;11.20;1.80;;;16.90;56.10;;;;;;10337582;28;20104;-53
2023/02/27 07:41:57;;;;;;;22.08;3.72;;;16.90;56.40;;;;;;10378033;28;20109;-51
2023/02/27 07:46:58;;;;;;;19.52;2.80;;;16.90;56.60;;;;;;10355925;28;20121;-52
2023/02/27 07:51:58;;;;;;;17.67;2.15;;;16.90;56.40;;;;;;10365591;28;20108;-54
2023/02/27 07:56:59;;;;;;;16.38;1.77;;;17.00;56.70;;;;;;10365306;28;20101;-54
2023/02/27 08:02:00;;;;;;;18.00;2.10;;;17.10;56.20;;;;;;10356894;28;20026;-53
2023/02/27 08:07:02;;;;;;;18.77;2.35;;;17.10;56.60;;;;;;10365145;28;20122;-54
2023/02/27 08:12:03;;;;;;;17.63;3.15;;;17.20;56.60;;;;;;10356428;28;20018;-52
2023/02/27 08:17:04;;;;;;;15.27;3.25;;;17.10;56.80;;;;;;10358196;28;20112;-55
2023/02/27 08:22:04;;;;;;;9.65;1.92;;;17.00;56.80;;;;;;10353296;28;20022;-54
2023/02/27 08:27:06;;;;;;;6.28;1.52;;;16.90;57.20;;;;;;10377071;28;20491;-54
2023/02/27 08:32:07;;;;;;;13.13;2.00;;;16.90;56.10;;;;;;10340314;28;20358;-54
2023/02/27 08:37:07;;;;;;;17.15;1.88;;;17.00;56.00;;;;;;10345689;28;20078;-54
2023/02/27 08:42:08;;;;;;;5.90;1.63;;;17.10;55.70;;;;;;10357052;28;20105;-53
2023/02/27 08:47:09;;;;;;;9.52;3.38;;;17.10;55.40;;;;;;10363572;28;20418;-55
2023/02/27 08:52:10;;;;;;;10.10;1.40;;;16.90;56.20;;;;;;10362521;28;20026;-53
2023/02/27 08:57:10;;;;;;;7.50;1.30;;;16.90;56.80;;;;;;10362754;28;20140;-55
2023/02/27 09:02:11;;;;;;;5.95;1.77;;;16.90;56.50;;;;;;10361432;28;20036;-53
2023/02/27 09:07:12;;;;;;;6.03;1.75;;;16.90;56.50;;;;;;10362401;28;20463;-53
2023/02/27 09:12:12;;;;;;;5.20;1.52;;;16.70;57.50;;;;;;10349896;28;20485;-53
2023/02/27 09:17:13;;;;;;;4.18;1.27;;;16.60;57.70;;;;;;10362480;28;20433;-54
2023/02/27 09:22:14;;;;;;;5.35;1.83;;;16.50;58.80;;;;;;10362641;28;20018;-53
2023/02/27 09:27:15;;;;;;;4.10;1.00;;;16.50;58.90;;;;;;10352768;28;20108;-54
2023/02/27 09:32:15;;;;;;;5.68;1.67;;;16.50;58.90;;;;;;10349570;28;20414;-52
2023/02/27 09:37:18;;;;;;;6.63;1.98;;;16.50;58.80;;;;;;10353107;28;20597;-54
2023/02/27 09:42:24;;;;;;;4.65;1.20;;;16.50;59.20;;;;;;10355453;28;20025;-53
2023/02/27 09:47:34;;;;;;;6.60;1.48;;;16.60;59.20;;;;;;10357464;28;20044;-52
2023/02/27 09:52:36;;;;;;;4.03;1.30;;;16.50;59.40;;;;;;10361835;28;20021;-54
2023/02/27 09:58:06;;;;;;;2.90;0.75;;;16.50;59.50;;;;;;10348284;28;20073;-53
2023/02/27 10:03:15;;;;;;;;;;;16.50;60.00;;;;;;10357825;28;20505;-52
2023/02/27 10:08:50;;;;;;;4.47;1.25;;;16.40;60.10;;;;;;10364177;28;19929;-52
2023/02/27 10:14:14;;;;;;;4.70;1.10;;;16.30;61.10;;;;;;10353234;28;20065;-53
2023/02/27 10:19:22;;;;;;;3.17;1.38;;;16.40;60.50;;;;;;10360764;28;20277;-54
2023/02/27 10:24:32;;;;;;;3.75;1.15;;;16.40;60.50;;;;;;10361661;28;20591;-53
2023/02/27 10:29:40;;;;;;;2.10;0.90;;;16.40;60.50;;;;;;10368729;28;20362;-52
2023/02/27 10:34:46;;;;;;;3.20;1.20;;;16.30;60.80;;;;;;10365865;28;20048;-53
2023/02/27 10:39:59;;;;;;;3.33;0.80;;;16.20;61.00;;;;;;10357587;28;20451;-53
2023/02/27 10:44:59;;;;;;;1.85;0.90;;;16.30;61.00;;;;;;10357936;28;20133;-54
2023/02/27 10:50:00;;;;;;;4.15;1.52;;;16.20;61.10;;;;;;10365974;28;20017;-54
2023/02/27 10:55:20;;;;;;;2.63;1.48;;;16.20;61.10;;;;;;10354597;28;20778;-55
2023/02/27 11:00:30;;;;;;;3.92;1.15;;;16.20;61.10;;;;;;10363572;28;20037;-54
2023/02/27 11:05:34;;;;;;;2.75;1.55;;;16.10;61.20;;;;;;10365378;28;20092;-54
2023/02/27 11:10:35;;;;;;;3.42;0.90;;;16.00;61.20;;;;;;10353539;28;20401;-54
2023/02/27 11:15:37;;;;;;;2.85;0.65;;;16.00;61.60;;;;;;10354217;28;20072;-55
2023/02/27 11:20:42;;;;;;;1.70;0.77;;;16.00;61.60;;;;;;10365107;28;20517;-54
2023/02/27 11:25:43;;;;;;;1.20;0.55;;;16.10;61.60;;;;;;10355741;28;20034;-53
2023/02/27 11:30:53;;;;;;;1.55;0.65;;;16.00;61.50;;;;;;10358516;28;20053;-53
2023/02/27 11:35:56;;;;;;;2.80;0.50;;;16.10;61.50;;;;;;10366194;28;20050;-53
2023/02/27 11:41:04;;;;;;;4.25;1.30;;;16.00;61.70;;;;;;10364359;28;20084;-53
2023/02/27 11:46:11;;;;;;;1.70;0.70;;;16.00;61.70;;;;;;10365459;28;20049;-52
2023/02/27 11:51:52;;;;;;;2.70;0.45;;;16.00;61.70;;;;;;10340123;28;20028;-54
2023/02/27 11:57:21;;;;;;;4.38;1.02;;;16.00;61.70;;;;;;10363727;28;20025;-53
2023/02/27 12:02:50;;;;;;;3.25;0.85;;;16.00;61.70;;;;;;10365130;28;20458;-54
2023/02/27 12:08:09;;;;;;;2.43;0.63;;;15.90;61.80;;;;;;10339407;28;20529;-54
2023/02/27 12:13:26;;;;;;;1.33;0.70;;;15.90;61.80;;;;;;10350754;28;20578;-54
2023/02/27 12:18:36;;;;;;;1.60;0.70;;;15.90;61.50;;;;;;10362235;28;20034;-54
2023/02/27 12:24:16;;;;;;;1.38;0.73;;;16.00;61.50;;;;;;10363340;28;20516;-54
2023/02/27 12:29:51;;;;;;;1.03;0.60;;;15.90;61.60;;;;;;10369350;28;20029;-52
2023/02/27 12:35:28;;;;;;;0.70;0.43;;;15.90;61.70;;;;;;10365093;28;20081;-53
2023/02/27 12:40:45;;;;;;;2.00;0.73;;;15.90;61.80;;;;;;10363602;28;20018;-54
2023/02/27 12:45:54;;;;;;;1.50;0.47;;;16.00;61.90;;;;;;10357861;28;20474;-54
2023/02/27 12:51:15;;;;;;;1.27;0.68;;;15.90;62.00;;;;;;10363038;28;20025;-53
2023/02/27 12:56:20;;;;;;;1.23;0.50;;;15.80;61.90;;;;;;10362952;28;20014;-52
2023/02/27 13:01:47;;;;;;;0.60;0.50;;;15.80;62.10;;;;;;10361390;28;20101;-53
2023/02/27 13:06:55;;;;;;;2.10;0.80;;;15.70;62.10;;;;;;10363071;28;20080;-53
2023/02/27 13:12:31;;;;;;;1.75;0.65;;;15.60;62.20;;;;;;10360273;28;20026;-53
2023/02/27 13:17:50;;;;;;;0.82;0.38;;;15.50;62.30;;;;;;10353384;28;20214;-53
2023/02/27 13:23:00;;;;;;;1.23;0.50;;;15.40;62.40;;;;;;10368364;28;20448;-53
2023/02/27 13:28:06;;;;;;;1.50;0.50;;;15.50;62.50;;;;;;10331026;28;20269;-55
2023/02/27 13:33:31;;;;;;;0.70;0.40;;;15.50;62.30;;;;;;10372780;28;20018;-51
2023/02/27 13:38:45;;;;;;;0.82;0.40;;;15.50;62.40;;;;;;10370033;28;20616;-51
2023/02/27 13:43:47;;;;;;;0.98;0.47;;;15.60;62.50;;;;;;10370565;28;20034;-53
2023/02/27 13:48:53;;;;;;;4.90;0.70;;;15.60;62.10;;;;;;10365413;28;20025;-54
2023/02/27 13:54:12;;;;;;;1.15;0.60;;;15.60;62.00;;;;;;10366410;28;20028;-52
2023/02/27 13:59:38;;;;;;;1.40;0.52;;;15.60;62.10;;;;;;10369574;28;20046;-53
2023/02/27 14:04:50;;;;;;;0.82;0.50;;;15.70;61.90;;;;;;10374400;28;20045;-53
2023/02/27 14:10:06;;;;;;;0.52;0.30;;;15.70;61.90;;;;;;10363818;28;20022;-51
2023/02/27 14:15:22;;;;;;;1.92;0.60;;;15.70;61.90;;;;;;10366836;28;20041;-54
2023/02/27 14:20:25;;;;;;;1.38;1.08;;;15.70;61.90;;;;;;10369345;28;20385;-53
2023/02/27 14:25:39;;;;;;;0.93;0.40;;;15.70;61.90;;;;;;10369427;28;20038;-52
2023/02/27 14:31:07;;;;;;;0.93;0.65;;;15.70;61.80;;;;;;10361053;28;20014;-54
2023/02/27 14:36:21;;;;;;;1.70;0.30;;;15.70;61.80;;;;;;10367051;28;20132;-53
2023/02/27 14:42:09;;;;;;;1.23;0.60;;;15.70;61.90;;;;;;10368394;28;20029;-52
2023/02/27 14:47:36;;;;;;;0.98;0.63;;;15.70;61.90;;;;;;10320631;28;20129;-53
2023/02/27 14:52:43;;;;;;;0.82;0.40;;;15.80;61.90;;;;;;10345976;28;20370;-54
2023/02/27 14:58:18;;;;;;;1.55;0.35;;;15.70;61.90;;;;;;10367076;28;20355;-53
2023/02/27 15:03:23;;;;;;;0.75;0.30;;;15.60;62.10;;;;;;10366287;28;20038;-53
2023/02/27 15:08:29;;;;;;;0.73;0.40;;;15.60;62.10;;;;;;10382599;28;20056;-54
2023/02/27 15:13:34;;;;;;;1.45;0.50;;;15.60;61.80;;;;;;10364188;28;20030;-53
2023/02/27 15:18:39;;;;;;;1.38;0.52;;;15.70;61.80;;;;;;10352768;28;20108;-54
2023/02/27 15:23:40;;;;;;;1.00;0.38;;;15.70;61.70;;;;;;10354754;28;20022;-54
2023/02/27 15:28:41;;;;;;;1.35;0.70;;;15.80;61.60;;;;;;10357564;28;20018;-53
2023/02/27 15:33:42;;;;;;;2.95;0.55;;;15.80;61.40;;;;;;10359413;28;20033;-53
2023/02/27 15:38:43;;;;;;;3.35;0.73;;;15.80;60.90;;;;;;10359753;28;20042;-51
2023/02/27 15:43:43;;;;;;;1.65;0.75;;;15.80;60.20;;;;;;10360823;28;20129;-53
2023/02/27 15:48:44;;;;;;;1.95;0.70;;;15.90;60.00;;;;;;10334234;28;20659;-52
2023/02/27 15:53:52;;;;;;;11.68;1.40;;;16.10;59.20;;;;;;10372241;28;20060;-53
2023/02/27 15:58:56;;;;;;;9.80;1.10;;;16.10;60.20;;;;;;10368825;28;20048;-55
2023/02/27 16:04:01;;;;;;;18.45;1.50;;;16.20;60.40;;;;;;10361609;28;20366;-51
2023/02/27 16:09:29;;;;;;;8.30;1.85;;;16.10;60.80;;;;;;10355944;28;20386;-55
2023/02/27 16:14:43;;;;;;;10.18;2.17;;;16.00;61.50;;;;;;10359436;28;20362;-54
2023/02/27 16:19:44;;;;;;;9.68;2.40;;;15.90;61.90;;;;;;10351249;28;20022;-54
2023/02/27 16:24:45;;;;;;;12.82;1.95;;;15.80;62.70;;;;;;10372991;28;20037;-52
2023/02/27 16:29:46;;;;;;;12.05;2.35;;;16.00;61.70;;;;;;10360000;28;20015;-53
2023/02/27 16:34:47;;;;;;;34.65;3.72;;;15.90;60.40;;;;;;10349951;28;20049;-52
2023/02/27 16:39:50;;;;;;;13.50;1.90;;;16.10;59.70;;;;;;10354349;28;20022;-53
2023/02/27 16:44:51;;;;;;;9.35;1.88;;;15.90;61.00;;;;;;10364435;28;20030;-54
2023/02/27 16:49:51;;;;;;;11.93;1.70;;;15.80;61.00;;;;;;10367065;28;20101;-53
2023/02/27 16:54:52;;;;;;;12.20;2.28;;;15.80;61.50;;;;;;10373896;28;20014;-54
2023/02/27 16:59:53;;;;;;;6.95;1.88;;;16.20;60.90;;;;;;10377077;28;20054;-54
2023/02/27 17:04:53;;;;;;;9.23;1.77;;;16.40;60.50;;;;;;10361083;28;20076;-54
2023/02/27 17:09:54;;;;;;;17.95;2.22;;;16.40;61.50;;;;;;10360154;28;20533;-55
2023/02/27 17:14:55;;;;;;;6.05;1.42;;;16.40;61.20;;;;;;10360425;28;20093;-55
2023/02/27 17:19:56;;;;;;;7.70;2.10;;;16.60;61.90;;;;;;10365423;28;20079;-56
2023/02/27 17:24:56;;;;;;;8.95;1.98;;;16.50;61.10;;;;;;10361265;28;20057;-56
2023/02/27 17:29:57;;;;;;;8.82;2.58;;;16.60;62.10;;;;;;10359137;28;20499;-55
2023/02/27 17:34:58;;;;;;;10.35;2.70;;;16.70;61.80;;;;;;10360831;28;20100;-55
2023/02/27 17:40:02;;;;;;;12.07;3.05;;;16.70;61.60;;;;;;10360222;28;20036;-54
2023/02/27 17:45:05;;;;;;;9.32;2.38;;;16.60;61.30;;;;;;10356221;28;20109;-53
2023/02/27 17:50:06;;;;;;;8.20;1.45;;;16.60;60.90;;;;;;10359840;28;20030;-52
2023/02/27 17:55:08;;;;;;;4.95;1.23;;;16.50;61.10;;;;;;10358945;28;20034;-55
2023/02/27 18:00:13;;;;;;;14.02;2.33;;;16.60;61.20;;;;;;10359866;28;20034;-53
2023/02/27 18:05:14;;;;;;;12.43;2.53;;;16.50;60.70;;;;;;10356481;28;20045;-53
2023/02/27 18:10:15;;;;;;;9.95;2.00;;;16.60;61.60;;;;;;10359752;28;20037;-54
2023/02/27 18:15:17;;;;;;;6.68;2.65;;;16.60;61.10;;;;;;10346667;28;20030;-55
2023/02/27 18:20:17;;;;;;;9.43;2.10;;;16.50;61.10;;;;;;10345230;28;20028;-56
2023/02/27 18:25:19;;;;;;;11.77;2.45;;;16.50;61.10;;;;;;10373216;28;20031;-56
2023/02/27 18:30:20;;;;;;;5.70;1.58;;;16.50;60.80;;;;;;10381849;28;20669;-54
2023/02/27 18:35:21;;;;;;;8.27;1.90;;;16.40;60.70;;;;;;10358769;28;20485;-55
2023/02/27 18:40:23;;;;;;;9.32;1.90;;;16.50;60.20;;;;;;10369329;28;20033;-54
2023/02/27 18:45:24;;;;;;;6.85;1.98;;;16.50;60.00;;;;;;10357546;28;20048;-55
2023/02/27 18:50:26;;;;;;;7.13;1.27;;;16.50;60.30;;;;;;10361615;28;20026;-54
2023/02/27 18:55:27;;;;;;;6.05;1.30;;;16.40;59.80;;;;;;10344210;28;20370;-55
2023/02/27 19:00:28;;;;;;;7.68;1.40;;;16.50;59.80;;;;;;10346269;28;20026;-55
2023/02/27 19:05:29;;;;;;;7.80;2.72;;;16.50;60.50;;;;;;10337450;28;20042;-56
2023/02/27 19:10:31;;;;;;;4.60;1.08;;;16.50;60.40;;;;;;10339731;28;20129;-55
2023/02/27 19:15:32;;;;;;;11.50;2.22;;;16.50;59.50;;;;;;10370523;28;20559;-54
2023/02/27 19:20:34;;;;;;;7.47;2.40;;;16.50;59.10;;;;;;10354362;28;20040;-54
2023/02/27 19:25:34;;;;;;;5.00;1.20;;;16.50;59.00;;;;;;10349886;28;20018;-55
2023/02/27 19:30:38;;;;;;;4.43;1.75;;;16.50;58.80;;;;;;10346664;28;20041;-55
2023/02/27 19:35:39;;;;;;;5.45;1.45;;;16.50;58.60;;;;;;10345259;28;20052;-54
2023/02/27 19:40:40;;;;;;;5.63;1.25;;;16.70;58.00;;;;;;10364327;28;20053;-55
2023/02/27 19:45:41;;;;;;;5.32;2.00;;;16.70;57.70;;;;;;10363567;28;20025;-55
2023/02/27 19:50:41;;;;;;;3.70;1.17;;;16.80;57.50;;;;;;10360697;28;20022;-55
2023/02/27 19:55:42;;;;;;;4.63;2.00;;;16.90;57.00;;;;;;10355904;28;20410;-55
2023/02/27 20:00:42;;;;;;;4.30;1.27;;;16.80;56.70;;;;;;10349576;28;20109;-53
2023/02/27 20:05:44;;;;;;;5.43;1.25;;;16.80;56.50;;;;;;10322197;28;20042;-55
2023/02/27 20:10:56;;;;;;;2.95;1.48;;;16.90;56.30;;;;;;10351772;28;20037;-54
2023/02/27 20:16:02;;;;;;;4.20;1.33;;;16.90;56.20;;;;;;10369029;28;20031;-55
2023/02/27 20:21:10;;;;;;;3.90;1.55;;;16.80;56.10;;;;;;10353983;28;20029;-55
2023/02/27 20:26:24;;;;;;;6.50;2.28;;;16.80;56.00;;;;;;10351861;28;20500;-53
2023/02/27 20:31:29;;;;;;;2.83;1.63;;;16.90;55.80;;;;;;10353371;28;20041;-55
2023/02/27 20:36:31;;;;;;;1.45;1.00;;;16.80;56.20;;;;;;10351197;28;20044;-55
2023/02/27 20:41:33;;;;;;;2.03;1.42;;;16.60;56.50;;;;;;10360627;28;20038;-55
2023/02/27 20:46:35;;;;;;;2.83;1.50;;;16.50;56.80;;;;;;10355145;28;20588;-55
2023/02/27 20:51:38;;;;;;;2.90;1.27;;;16.30;57.10;;;;;;10353971;28;20474;-54
2023/02/27 20:56:40;;;;;;;3.72;1.33;;;16.20;57.30;;;;;;10356011;28;20041;-55
2023/02/27 21:01:49;;;;;;;3.25;1.42;;;16.10;57.50;;;;;;10347413;28;20073;-54
2023/02/27 21:06:51;;;;;;;4.82;1.70;;;16.00;57.70;;;;;;10326103;28;20083;-54
2023/02/27 21:11:51;;;;;;;3.08;1.48;;;15.90;58.00;;;;;;10345690;28;20060;-54
2023/02/27 21:16:52;;;;;;;3.85;1.80;;;15.80;58.30;;;;;;10363087;28;20101;-55
2023/02/27 21:21:53;;;;;;;4.32;1.40;;;15.70;58.50;;;;;;10362296;28;20068;-55
2023/02/27 21:26:53;;;;;;;2.42;1.10;;;15.60;58.70;;;;;;10360961;28;20036;-55
2023/02/27 21:31:54;;;;;;;3.50;1.63;;;15.60;58.90;;;;;;10359769;28;20109;-55
2023/02/27 21:36:55;;;;;;;3.97;1.88;;;15.50;59.00;;;;;;10351393;28;20471;-55
2023/02/27 21:41:58;;;;;;;4.63;2.33;;;15.50;59.30;;;;;;10362230;28;20033;-55
2023/02/27 21:47:08;;;;;;;5.47;3.45;;;15.40;59.40;;;;;;10363720;28;20025;-55
2023/02/27 21:52:09;;;;;;;5.97;3.33;;;15.40;59.60;;;;;;10378500;28;20058;-55
2023/02/27 21:57:10;;;;;;;7.03;3.47;;;15.30;59.70;;;;;;10363011;28;20037;-54
2023/02/27 22:02:12;;;;;;;5.13;3.03;;;15.20;59.70;;;;;;10364396;28;20030;-54
2023/02/27 22:07:13;;;;;;;5.32;3.55;;;15.20;59.70;;;;;;10361861;28;20037;-55
2023/02/27 22:12:13;;;;;;;4.18;2.63;;;15.10;59.90;;;;;;10358716;28;20105;-56
2023/02/27 22:17:14;;;;;;;4.97;2.67;;;15.10;60.20;;;;;;10361183;28;20351;-55
2023/02/27 22:22:15;;;;;;;4.80;3.05;;;15.00;60.20;;;;;;10379679;28;20025;-54
2023/02/27 22:27:15;;;;;;;4.72;2.83;;;15.00;60.50;;;;;;10360614;28;20504;-54
2023/02/27 22:32:16;;;;;;;5.75;2.70;;;15.00;60.90;;;;;;10367724;28;20398;-54
2023/02/27 22:37:18;;;;;;;5.13;2.38;;;14.90;60.80;;;;;;10361166;28;20116;-54
2023/02/27 22:42:19;;;;;;;3.78;2.38;;;14.90;60.80;;;;;;10384847;28;20038;-54
2023/02/27 22:47:20;;;;;;;4.35;2.70;;;14.80;60.90;;;;;;10365627;28;20456;-54
2023/02/27 22:52:20;;;;;;;5.07;2.28;;;14.80;60.90;;;;;;10373245;28;20520;-54
2023/02/27 22:57:21;;;;;;;4.68;2.75;;;14.80;60.90;;;;;;10368081;28;20172;-55
2023/02/27 23:02:22;;;;;;;4.10;2.03;;;14.70;60.90;;;;;;10362153;28;20026;-55
2023/02/27 23:07:23;;;;;;;3.47;2.13;;;14.70;61.10;;;;;;10356314;28;20022;-54
2023/02/27 23:12:23;;;;;;;5.47;3.05;;;14.70;60.90;;;;;;10354152;28;20101;-55
2023/02/27 23:17:24;;;;;;;3.65;2.70;;;14.70;60.90;;;;;;10368261;28;20105;-54
2023/02/27 23:22:25;;;;;;;4.55;3.17;;;14.70;60.90;;;;;;10368311;28;20108;-54
2023/02/27 23:27:25;;;;;;;4.53;2.53;;;14.60;60.90;;;;;;10368623;28;20871;-55
2023/02/27 23:32:26;;;;;;;4.10;2.47;;;14.60;60.80;;;;;;10367082;28;20070;-54
2023/02/27 23:37:26;;;;;;;4.63;2.22;;;14.60;61.00;;;;;;10367758;28;20046;-60
2023/02/27 23:42:29;;;;;;;4.57;2.72;;;14.60;60.90;;;;;;10368000;28;20121;-55
2023/02/27 23:47:45;;;;;;;3.45;1.92;;;14.60;60.50;;;;;;10365288;28;20497;-55
2023/02/27 23:52:48;;;;;;;3.53;2.55;;;14.60;60.10;;;;;;10367109;28;20061;-55
2023/02/27 23:57:54;;;;;;;5.38;2.40;;;14.50;60.50;;;;;;10355799;28;20466;-54
